createdAt,value
2022-07-31T00:02:07.685Z,27.55
2022-07-31T00:04:34.571Z,27.66
2022-07-31T00:07:01.594Z,27.68
2022-07-31T00:09:52.318Z,27.67
2022-07-31T00:12:17.639Z,27.62
2022-07-31T00:14:45.288Z,27.69
2022-07-31T00:17:12.614Z,27.57
2022-07-31T00:19:39.603Z,27.68
2022-07-31T00:22:06.111Z,27.59
2022-07-31T00:24:32.733Z,27.58
2022-07-31T00:27:00.093Z,27.31
2022-07-31T00:29:26.862Z,27.47
2022-07-31T00:31:53.422Z,27.54
2022-07-31T00:34:20.339Z,27.56
2022-07-31T00:36:46.908Z,27.27
2022-07-31T00:39:13.878Z,27.24
2022-07-31T00:41:43.017Z,27.29
2022-07-31T00:44:12.408Z,27.31
2022-07-31T00:46:40.507Z,27.30
2022-07-31T00:49:11.172Z,27.31
2022-07-31T00:51:41.022Z,27.30
2022-07-31T00:54:09.030Z,27.27
2022-07-31T00:56:36.489Z,27.32
2022-07-31T00:59:04.103Z,27.25
2022-07-31T01:01:31.049Z,27.33
2022-07-31T01:03:57.997Z,27.32
2022-07-31T01:06:24.585Z,27.33
2022-07-31T01:08:51.158Z,27.35
2022-07-31T01:11:31.251Z,27.32
2022-07-31T01:14:02.930Z,27.31
2022-07-31T01:16:35.331Z,27.32
2022-07-31T01:19:15.300Z,27.33
2022-07-31T01:22:05.750Z,27.33
2022-07-31T01:25:11.791Z,27.39
2022-07-31T01:28:02.288Z,27.37
2022-07-31T01:30:36.835Z,27.40
2022-07-31T01:33:08.555Z,27.39
2022-07-31T01:35:43.274Z,27.38
2022-07-31T01:38:15.808Z,27.41
2022-07-31T01:40:46.466Z,27.34
2022-07-31T01:43:17.770Z,27.36
2022-07-31T01:45:47.910Z,27.26
2022-07-31T01:48:16.006Z,27.39
2022-07-31T01:50:44.925Z,27.44
2022-07-31T01:53:20.435Z,27.45
2022-07-31T01:56:03.746Z,27.45
2022-07-31T01:58:37.882Z,27.39
2022-07-31T02:01:11.283Z,27.41
2022-07-31T02:03:44.245Z,27.45
2022-07-31T02:06:15.839Z,27.39
2022-07-31T02:08:46.601Z,27.37
2022-07-31T02:11:19.365Z,27.30
2022-07-31T02:13:48.198Z,27.21
2022-07-31T02:16:17.133Z,27.24
2022-07-31T02:18:44.120Z,27.38
2022-07-31T02:21:15.319Z,27.38
2022-07-31T02:23:42.056Z,27.32
2022-07-31T02:26:09.386Z,27.41
2022-07-31T02:28:40.614Z,27.26
2022-07-31T02:31:11.261Z,27.38
2022-07-31T02:33:41.846Z,27.35
2022-07-31T02:36:10.008Z,27.30
2022-07-31T02:38:39.128Z,27.31
2022-07-31T02:41:07.558Z,27.22
2022-07-31T02:43:35.757Z,27.16
2022-07-31T02:46:13.659Z,27.15
2022-07-31T02:48:41.373Z,27.03
2022-07-31T02:51:10.468Z,26.89
2022-07-31T02:53:39.927Z,27.07
2022-07-31T02:56:09.696Z,26.93
2022-07-31T02:58:41.772Z,26.74
2022-07-31T03:01:10.455Z,26.92
2022-07-31T03:03:37.899Z,26.83
2022-07-31T03:06:04.726Z,26.88
2022-07-31T03:08:32.650Z,27.03
2022-07-31T03:11:03.425Z,27.07
2022-07-31T03:13:33.439Z,27.00
2022-07-31T03:16:00.441Z,26.85
2022-07-31T03:18:29.205Z,26.88
2022-07-31T03:20:57.002Z,26.68
2022-07-31T03:23:26.035Z,26.67
2022-07-31T03:25:58.650Z,26.88
2022-07-31T03:28:26.028Z,26.92
2022-07-31T03:30:56.224Z,26.93
2022-07-31T03:33:25.090Z,26.91
2022-07-31T03:35:53.587Z,26.73
2022-07-31T03:38:38.375Z,26.49
2022-07-31T03:41:07.661Z,26.50
2022-07-31T03:43:47.247Z,26.28
2022-07-31T03:46:18.474Z,26.16
2022-07-31T03:48:45.671Z,26.14
2022-07-31T03:51:13.232Z,26.19
2022-07-31T03:53:42.395Z,26.31
2022-07-31T03:56:13.333Z,26.49
2022-07-31T03:58:39.945Z,26.60
2022-07-31T04:01:10.407Z,26.65
2022-07-31T04:03:39.069Z,26.72
2022-07-31T04:06:25.986Z,26.91
2022-07-31T04:08:53.574Z,27.02
2022-07-31T04:11:20.672Z,26.65
2022-07-31T04:13:47.300Z,26.70
2022-07-31T04:16:14.207Z,26.89
2022-07-31T04:18:40.946Z,27.03
2022-07-31T04:21:07.562Z,27.08
2022-07-31T04:23:34.693Z,27.18
2022-07-31T04:26:25.457Z,27.36
2022-07-31T04:29:01.821Z,27.18
2022-07-31T04:31:28.587Z,27.27
2022-07-31T04:33:57.055Z,27.45
2022-07-31T04:36:30.606Z,27.48
2022-07-31T04:39:00.230Z,27.50
2022-07-31T04:41:28.306Z,27.41
2022-07-31T04:43:55.218Z,27.35
2022-07-31T04:46:22.229Z,27.36
2022-07-31T04:48:49.303Z,27.32
2022-07-31T04:51:21.051Z,27.48
2022-07-31T04:53:50.155Z,27.53
2022-07-31T04:56:41.845Z,27.49
2022-07-31T04:59:14.055Z,27.55
2022-07-31T05:01:44.509Z,27.53
2022-07-31T05:04:13.765Z,27.74
2022-07-31T05:06:45.450Z,27.57
2022-07-31T05:09:18.833Z,27.41
2022-07-31T05:11:47.355Z,27.62
2022-07-31T05:14:16.578Z,27.65
2022-07-31T05:16:43.630Z,27.54
2022-07-31T05:19:14.866Z,27.30
2022-07-31T05:22:02.724Z,27.11
2022-07-31T05:24:42.953Z,26.84
2022-07-31T05:27:12.259Z,26.97
2022-07-31T05:29:41.893Z,26.75
2022-07-31T05:32:08.879Z,27.02
2022-07-31T05:34:36.643Z,26.76
2022-07-31T05:37:05.270Z,26.97
2022-07-31T05:39:35.140Z,26.97
2022-07-31T05:42:20.302Z,26.94
2022-07-31T05:45:11.931Z,27.08
2022-07-31T05:47:39.792Z,26.89
2022-07-31T05:50:08.377Z,26.87
2022-07-31T05:52:35.209Z,27.11
2022-07-31T05:55:12.317Z,27.16
2022-07-31T05:58:07.970Z,27.31
2022-07-31T06:00:35.046Z,27.39
2022-07-31T06:03:02.369Z,27.25
2022-07-31T06:05:47.727Z,27.77
2022-07-31T06:08:14.270Z,27.55
2022-07-31T06:10:45.767Z,27.83
2022-07-31T06:13:13.272Z,27.97
2022-07-31T06:15:42.386Z,28.43
2022-07-31T06:18:15.824Z,28.51
2022-07-31T06:20:42.859Z,28.38
2022-07-31T06:23:19.989Z,28.72
2022-07-31T06:26:00.145Z,29.06
2022-07-31T06:28:38.885Z,29.36
2022-07-31T06:31:18.356Z,29.35
2022-07-31T06:33:48.214Z,29.62
2022-07-31T06:36:17.038Z,29.95
2022-07-31T06:38:57.074Z,30.30
2022-07-31T06:41:49.546Z,30.34
2022-07-31T06:44:29.734Z,30.52
2022-07-31T06:47:19.217Z,29.78
2022-07-31T06:49:52.558Z,30.20
2022-07-31T06:52:19.373Z,30.25
2022-07-31T06:54:46.139Z,30.82
2022-07-31T06:57:12.738Z,31.32
2022-07-31T06:59:40.971Z,31.59
2022-07-31T07:02:08.686Z,31.91
2022-07-31T07:05:06.116Z,32.02
2022-07-31T07:07:22.220Z,31.86
2022-07-31T07:09:50.189Z,32.36
2022-07-31T07:12:30.361Z,32.00
2022-07-31T07:14:58.016Z,32.71
2022-07-31T07:17:28.810Z,32.47
2022-07-31T07:19:55.938Z,32.67
2022-07-31T07:22:31.560Z,32.45
2022-07-31T07:25:00.927Z,32.16
2022-07-31T07:27:27.552Z,31.85
2022-07-31T07:29:54.530Z,32.00
2022-07-31T07:32:21.207Z,32.27
2022-07-31T07:34:48.090Z,32.37
2022-07-31T07:37:45.227Z,32.78
2022-07-31T07:40:12.101Z,32.66
2022-07-31T07:42:38.784Z,32.50
2022-07-31T07:45:08.327Z,32.82
2022-07-31T07:47:53.807Z,33.11
2022-07-31T07:50:22.832Z,33.18
2022-07-31T07:53:27.334Z,33.38
2022-07-31T07:56:12.545Z,33.52
2022-07-31T07:58:51.122Z,32.70
2022-07-31T08:01:46.731Z,32.84
2022-07-31T08:04:29.119Z,33.03
2022-07-31T08:06:55.696Z,33.14
2022-07-31T08:09:25.721Z,33.71
2022-07-31T08:12:10.788Z,33.73
2022-07-31T08:15:12.937Z,34.10
2022-07-31T08:18:08.645Z,33.89
2022-07-31T08:20:40.876Z,33.87
2022-07-31T08:23:08.104Z,33.91
2022-07-31T08:25:34.845Z,34.05
2022-07-31T08:28:03.411Z,34.64
2022-07-31T08:30:32.802Z,35.42
2022-07-31T08:32:59.734Z,35.78
2022-07-31T08:35:51.009Z,35.61
2022-07-31T08:38:19.693Z,35.16
2022-07-31T08:41:15.635Z,35.32
2022-07-31T08:44:02.990Z,35.32
2022-07-31T08:46:29.434Z,35.28
2022-07-31T08:48:57.962Z,34.28
2022-07-31T08:51:25.650Z,34.61
2022-07-31T08:54:13.499Z,34.28
2022-07-31T08:56:42.217Z,34.01
2022-07-31T08:59:09.326Z,33.94
2022-07-31T09:01:38.643Z,34.24
2022-07-31T09:04:05.741Z,34.60
2022-07-31T09:06:32.313Z,34.80
2022-07-31T09:08:58.967Z,34.93
2022-07-31T09:11:25.545Z,35.24
2022-07-31T09:14:07.493Z,34.96
2022-07-31T09:16:50.358Z,34.88
2022-07-31T09:19:53.017Z,35.04
2022-07-31T09:22:21.926Z,35.72
2022-07-31T09:24:49.281Z,36.02
2022-07-31T09:27:17.723Z,36.20
2022-07-31T09:29:49.035Z,35.55
2022-07-31T09:32:43.778Z,35.37
2022-07-31T09:35:20.907Z,35.23
2022-07-31T09:37:48.153Z,35.47
2022-07-31T09:40:57.143Z,35.01
2022-07-31T09:44:09.876Z,36.27
2022-07-31T09:46:48.225Z,36.92
2022-07-31T09:49:15.627Z,37.60
2022-07-31T09:51:47.027Z,37.72
2022-07-31T09:54:23.413Z,37.59
2022-07-31T09:57:09.686Z,37.99
2022-07-31T09:59:37.272Z,37.17
2022-07-31T10:02:05.622Z,36.60
2022-07-31T10:04:32.415Z,36.54
2022-07-31T10:07:00.186Z,36.97
2022-07-31T10:09:27.275Z,36.11
2022-07-31T10:12:19.754Z,36.65
2022-07-31T10:14:47.978Z,36.38
2022-07-31T10:17:20.614Z,36.21
2022-07-31T10:20:08.381Z,36.51
2022-07-31T10:22:59.216Z,36.68
2022-07-31T10:25:29.816Z,37.67
2022-07-31T10:27:57.861Z,37.57
2022-07-31T10:30:28.389Z,38.10
2022-07-31T10:32:59.228Z,38.54
2022-07-31T10:35:55.871Z,39.11
2022-07-31T10:38:51.734Z,39.76
2022-07-31T10:41:55.185Z,40.23
2022-07-31T10:44:38.966Z,39.27
2022-07-31T10:47:18.751Z,38.79
2022-07-31T10:50:04.695Z,39.18
2022-07-31T10:52:40.323Z,38.38
2022-07-31T10:55:27.070Z,38.08
2022-07-31T10:58:21.760Z,38.35
2022-07-31T11:00:53.927Z,38.30
2022-07-31T11:03:46.808Z,37.79
2022-07-31T11:06:26.817Z,37.60
2022-07-31T11:08:58.641Z,37.55
2022-07-31T11:12:00.427Z,36.91
2022-07-31T11:14:40.299Z,36.13
2022-07-31T11:18:23.341Z,35.97
2022-07-31T11:20:30.014Z,35.83
2022-07-31T11:23:06.223Z,35.62
2022-07-31T11:25:35.451Z,35.78
2022-07-31T11:28:16.396Z,35.91
2022-07-31T11:30:59.116Z,35.85
2022-07-31T11:33:41.033Z,35.53
2022-07-31T11:36:21.069Z,35.37
2022-07-31T11:38:50.747Z,35.40
2022-07-31T11:41:22.289Z,35.32
2022-07-31T11:43:51.510Z,35.53
2022-07-31T11:46:26.549Z,35.81
2022-07-31T11:48:54.674Z,35.98
2022-07-31T11:51:21.919Z,36.55
2022-07-31T11:53:57.041Z,37.29
2022-07-31T11:56:26.552Z,37.51
2022-07-31T11:58:55.449Z,37.97
2022-07-31T12:01:29.461Z,38.21
2022-07-31T12:04:08.350Z,38.52
2022-07-31T12:06:36.589Z,38.53
2022-07-31T12:09:03.685Z,39.28
2022-07-31T12:11:30.602Z,39.43
2022-07-31T12:13:57.139Z,39.26
2022-07-31T12:16:23.937Z,39.22
2022-07-31T12:18:59.066Z,39.13
2022-07-31T12:21:37.297Z,39.55
2022-07-31T12:24:12.450Z,40.10
2022-07-31T12:26:42.664Z,39.42
2022-07-31T12:29:11.054Z,39.55
2022-07-31T12:31:44.836Z,39.29
2022-07-31T12:34:11.981Z,39.04
2022-07-31T12:36:38.540Z,39.49
2022-07-31T12:39:05.948Z,39.71
2022-07-31T12:41:42.792Z,39.70
2022-07-31T12:44:14.586Z,39.70
2022-07-31T12:46:41.629Z,39.09
2022-07-31T12:49:09.813Z,38.35
2022-07-31T12:51:45.371Z,38.11
2022-07-31T12:54:17.593Z,37.58
2022-07-31T12:56:46.226Z,38.08
2022-07-31T12:59:13.027Z,38.05
2022-07-31T13:01:43.242Z,38.09
2022-07-31T13:04:18.663Z,37.55
2022-07-31T13:06:49.019Z,37.54
2022-07-31T13:09:15.982Z,37.45
2022-07-31T13:11:46.742Z,37.24
2022-07-31T13:14:20.263Z,36.94
2022-07-31T13:16:49.904Z,37.12
2022-07-31T13:19:16.825Z,37.02
2022-07-31T13:21:49.603Z,37.20
2022-07-31T13:24:20.898Z,37.24
2022-07-31T13:26:49.078Z,36.94
2022-07-31T13:29:17.173Z,36.99
2022-07-31T13:31:44.186Z,37.06
2022-07-31T13:34:11.063Z,36.32
2022-07-31T13:36:39.433Z,36.74
2022-07-31T13:39:07.874Z,36.40
2022-07-31T13:41:35.534Z,36.57
2022-07-31T13:44:03.426Z,36.32
2022-07-31T13:46:31.581Z,36.31
2022-07-31T13:48:59.498Z,35.86
2022-07-31T13:51:28.941Z,36.30
2022-07-31T13:53:55.984Z,36.18
2022-07-31T13:56:39.337Z,36.13
2022-07-31T13:59:11.380Z,36.58
2022-07-31T14:02:04.461Z,36.82
2022-07-31T14:04:25.895Z,36.82
2022-07-31T14:06:55.202Z,37.06
2022-07-31T14:09:21.767Z,37.08
2022-07-31T14:11:48.373Z,36.35
2022-07-31T14:14:20.191Z,36.40
2022-07-31T14:16:50.497Z,36.16
2022-07-31T14:19:17.058Z,36.77
2022-07-31T14:21:56.119Z,36.49
2022-07-31T14:24:23.848Z,36.62
2022-07-31T14:26:50.366Z,36.75
2022-07-31T14:29:16.940Z,36.28
2022-07-31T14:31:43.494Z,35.99
2022-07-31T14:34:10.218Z,36.13
2022-07-31T14:36:36.870Z,36.11
2022-07-31T14:39:03.503Z,35.96
2022-07-31T14:41:30.056Z,35.94
2022-07-31T14:43:56.613Z,35.44
2022-07-31T14:46:23.153Z,36.01
2022-07-31T14:48:49.820Z,35.70
2022-07-31T14:51:17.626Z,35.50
2022-07-31T14:53:44.729Z,35.14
2022-07-31T14:56:11.258Z,35.30
2022-07-31T14:58:57.522Z,34.66
2022-07-31T15:01:24.730Z,34.86
2022-07-31T15:03:57.531Z,34.72
2022-07-31T15:06:41.754Z,35.15
2022-07-31T15:09:10.813Z,35.06
2022-07-31T15:11:59.160Z,34.75
2022-07-31T15:14:24.371Z,34.37
2022-07-31T15:16:51.484Z,34.41
2022-07-31T15:19:18.029Z,33.91
2022-07-31T15:22:16.018Z,33.82
2022-07-31T15:24:33.082Z,33.83
2022-07-31T15:27:00.110Z,34.17
2022-07-31T15:30:04.563Z,34.37
2022-07-31T15:32:13.511Z,34.25
2022-07-31T15:34:40.336Z,34.53
2022-07-31T15:37:07.472Z,34.44
2022-07-31T15:39:34.359Z,34.57
2022-07-31T15:42:02.516Z,34.22
2022-07-31T15:44:29.052Z,34.64
2022-07-31T15:46:55.990Z,34.29
2022-07-31T15:49:22.651Z,34.73
2022-07-31T15:51:49.264Z,34.82
2022-07-31T15:54:16.022Z,34.72
2022-07-31T15:56:42.722Z,34.84
2022-07-31T15:59:09.260Z,34.94
2022-07-31T16:01:37.506Z,34.69
2022-07-31T16:04:04.458Z,34.78
2022-07-31T16:06:44.076Z,34.77
2022-07-31T16:09:16.413Z,34.61
2022-07-31T16:12:03.784Z,34.31
2022-07-31T16:14:29.822Z,33.95
2022-07-31T16:16:57.442Z,33.65
2022-07-31T16:19:25.063Z,32.73
2022-07-31T16:21:52.967Z,31.84
2022-07-31T16:24:22.143Z,31.55
2022-07-31T16:26:49.572Z,30.28
2022-07-31T16:29:17.810Z,30.17
2022-07-31T16:32:04.157Z,29.98
2022-07-31T16:34:30.737Z,29.85
2022-07-31T16:36:57.566Z,29.22
2022-07-31T16:39:24.124Z,29.04
2022-07-31T16:41:54.607Z,28.88
2022-07-31T16:44:21.986Z,29.03
2022-07-31T16:46:54.278Z,29.23
2022-07-31T16:49:35.711Z,28.99
2022-07-31T16:52:03.946Z,29.16
2022-07-31T16:54:30.906Z,29.46
2022-07-31T16:56:57.584Z,29.61
2022-07-31T16:59:24.130Z,29.81
2022-07-31T17:01:57.906Z,29.32
2022-07-31T17:04:26.935Z,29.63
2022-07-31T17:06:53.492Z,29.68
2022-07-31T17:09:20.930Z,29.59
2022-07-31T17:11:49.899Z,29.75
2022-07-31T17:14:18.991Z,29.50
2022-07-31T17:16:48.293Z,29.72
2022-07-31T17:19:41.753Z,29.46
2022-07-31T17:22:04.941Z,29.47
2022-07-31T17:24:32.152Z,29.52
2022-07-31T17:26:59.653Z,29.59
2022-07-31T17:29:26.398Z,29.51
2022-07-31T17:31:53.376Z,29.31
2022-07-31T17:34:19.915Z,29.29
2022-07-31T17:36:49.966Z,29.21
2022-07-31T17:39:16.845Z,29.38
2022-07-31T17:41:43.993Z,29.36
2022-07-31T17:44:10.567Z,28.82
2022-07-31T17:46:47.927Z,28.67
2022-07-31T17:49:20.262Z,28.84
2022-07-31T17:51:57.699Z,28.64
2022-07-31T17:54:34.699Z,28.39
2022-07-31T17:57:01.889Z,28.63
2022-07-31T17:59:29.184Z,28.48
2022-07-31T18:02:00.108Z,28.61
2022-07-31T18:04:28.548Z,28.62
2022-07-31T18:06:55.415Z,28.49
2022-07-31T18:09:23.587Z,28.36
2022-07-31T18:11:52.178Z,28.20
2022-07-31T18:14:19.446Z,28.18
2022-07-31T18:16:47.048Z,28.12
2022-07-31T18:19:14.184Z,28.21
2022-07-31T18:21:40.776Z,28.26
2022-07-31T18:24:07.928Z,27.99
2022-07-31T18:26:35.346Z,28.32
2022-07-31T18:29:02.229Z,28.52
2022-07-31T18:31:34.019Z,28.27
2022-07-31T18:34:06.042Z,27.91
2022-07-31T18:36:34.703Z,27.57
2022-07-31T18:39:01.730Z,27.97
2022-07-31T18:41:29.540Z,27.58
2022-07-31T18:43:56.255Z,27.55
2022-07-31T18:46:24.875Z,27.60
2022-07-31T18:48:55.777Z,27.84
2022-07-31T18:51:24.618Z,27.77
2022-07-31T18:53:51.882Z,27.91
2022-07-31T18:56:21.892Z,27.99
2022-07-31T18:58:48.423Z,27.68
2022-07-31T19:01:15.210Z,27.50
2022-07-31T19:03:41.882Z,27.79
2022-07-31T19:06:08.970Z,27.27
2022-07-31T19:08:35.530Z,26.93
2022-07-31T19:11:02.082Z,27.04
2022-07-31T19:13:29.517Z,27.37
2022-07-31T19:15:56.407Z,27.03
2022-07-31T19:18:24.526Z,27.17
2022-07-31T19:21:23.475Z,27.18
2022-07-31T19:23:43.722Z,27.52
2022-07-31T19:26:10.494Z,27.50
2022-07-31T19:28:38.257Z,27.61
2022-07-31T19:31:05.601Z,27.75
2022-07-31T19:33:32.198Z,27.52
2022-07-31T19:36:02.179Z,27.62
2022-07-31T19:38:31.081Z,27.64
2022-07-31T19:40:59.234Z,27.32
2022-07-31T19:43:25.986Z,27.23
2022-07-31T19:46:10.632Z,27.54
2022-07-31T19:48:44.640Z,27.77
2022-07-31T19:51:13.049Z,27.68
2022-07-31T19:53:40.059Z,27.70
2022-07-31T19:56:06.718Z,27.71
2022-07-31T19:58:35.242Z,27.35
2022-07-31T20:01:03.044Z,27.10
2022-07-31T20:03:29.775Z,27.07
2022-07-31T20:05:56.706Z,27.21
2022-07-31T20:08:23.701Z,27.31
2022-07-31T20:10:50.596Z,26.84
2022-07-31T20:13:18.528Z,27.28
2022-07-31T20:15:52.178Z,26.96
2022-07-31T20:18:27.338Z,26.74
2022-07-31T20:21:03.785Z,27.06
2022-07-31T20:23:34.456Z,26.81
2022-07-31T20:26:01.449Z,27.29
2022-07-31T20:28:28.579Z,27.08
2022-07-31T20:30:55.954Z,27.44
2022-07-31T20:33:22.726Z,27.33
2022-07-31T20:35:50.244Z,27.39
2022-07-31T20:38:21.464Z,27.41
2022-07-31T20:40:53.726Z,27.51
2022-07-31T20:43:23.576Z,27.55
2022-07-31T20:45:50.715Z,27.75
2022-07-31T20:48:23.083Z,27.77
2022-07-31T20:50:50.698Z,27.78
2022-07-31T20:53:17.426Z,27.47
2022-07-31T20:55:49.800Z,27.47
2022-07-31T20:58:22.455Z,27.43
2022-07-31T21:00:51.980Z,27.51
2022-07-31T21:03:19.305Z,27.68
2022-07-31T21:05:46.557Z,27.67
2022-07-31T21:08:13.566Z,27.75
2022-07-31T21:10:40.644Z,27.82
2022-07-31T21:13:07.480Z,27.86
2022-07-31T21:15:42.170Z,27.61
2022-07-31T21:18:16.905Z,27.32
2022-07-31T21:20:51.550Z,27.61
2022-07-31T21:23:20.628Z,27.13
2022-07-31T21:25:47.385Z,27.22
2022-07-31T21:28:14.331Z,27.41
2022-07-31T21:30:41.339Z,27.70
2022-07-31T21:33:09.198Z,27.87
2022-07-31T21:35:37.576Z,28.01
2022-07-31T21:38:05.044Z,27.83
2022-07-31T21:40:34.918Z,28.15
2022-07-31T21:43:03.218Z,27.83
2022-07-31T21:45:40.582Z,27.76
2022-07-31T21:48:17.075Z,27.92
2022-07-31T21:50:46.550Z,27.72
2022-07-31T21:53:14.013Z,28.07
2022-07-31T21:55:40.836Z,27.85
2022-07-31T21:58:08.304Z,27.92
2022-07-31T22:00:35.001Z,27.99
2022-07-31T22:03:03.147Z,27.99
2022-07-31T22:05:49.620Z,28.20
2022-07-31T22:08:17.196Z,28.07
2022-07-31T22:10:43.904Z,28.18
2022-07-31T22:13:10.996Z,27.73
2022-07-31T22:15:59.294Z,27.38
2022-07-31T22:18:26.352Z,27.55
2022-07-31T22:20:53.777Z,27.78
2022-07-31T22:23:20.632Z,27.62
2022-07-31T22:25:48.983Z,27.73
2022-07-31T22:28:18.812Z,27.93
2022-07-31T22:30:45.764Z,28.02
2022-07-31T22:33:12.719Z,28.22
2022-07-31T22:35:40.612Z,28.27
2022-07-31T22:38:08.360Z,28.00
2022-07-31T22:40:36.068Z,28.13
2022-07-31T22:43:03.481Z,28.03
2022-07-31T22:45:30.570Z,27.88
2022-07-31T22:47:57.887Z,28.08
2022-07-31T22:50:24.576Z,27.97
2022-07-31T22:52:51.653Z,28.19
2022-07-31T22:55:18.234Z,27.96
2022-07-31T22:57:44.993Z,27.88
2022-07-31T23:00:18.052Z,27.88
2022-07-31T23:02:45.677Z,27.51
2022-07-31T23:05:12.397Z,27.37
2022-07-31T23:07:39.697Z,27.67
2022-07-31T23:10:07.414Z,27.82
2022-07-31T23:12:34.096Z,27.73
2022-07-31T23:15:01.475Z,28.04
2022-07-31T23:17:28.172Z,28.03
2022-07-31T23:19:54.958Z,28.15
2022-07-31T23:22:33.865Z,28.26
2022-07-31T23:25:02.954Z,28.15
2022-07-31T23:27:29.797Z,27.85
2022-07-31T23:29:56.370Z,28.09
2022-07-31T23:32:22.979Z,28.27
2022-07-31T23:34:49.535Z,27.99
2022-07-31T23:37:16.470Z,28.34
2022-07-31T23:39:43.213Z,28.22
2022-07-31T23:42:28.519Z,28.27
2022-07-31T23:44:55.057Z,28.40
2022-07-31T23:47:24.349Z,28.12
2022-07-31T23:50:11.167Z,28.03
2022-07-31T23:52:37.742Z,27.99
2022-07-31T23:55:07.746Z,27.40
2022-07-31T23:57:36.202Z,26.92
